createdAt,value
2022-10-22T00:01:12.406Z,23.50
2022-10-22T00:03:41.975Z,24.95
2022-10-22T00:06:10.136Z,26.25
2022-10-22T00:08:38.396Z,27.38
2022-10-22T00:11:11.361Z,25.58
2022-10-22T00:13:39.533Z,24.83
2022-10-22T00:16:07.989Z,26.42
2022-10-22T00:18:36.228Z,25.55
2022-10-22T00:21:06.645Z,26.75
2022-10-22T00:23:35.168Z,25.80
2022-10-22T00:26:03.320Z,24.88
2022-10-22T00:28:31.445Z,25.23
2022-10-22T00:31:00.962Z,26.20
2022-10-22T00:33:30.320Z,28.08
2022-10-22T00:35:58.554Z,25.40
2022-10-22T00:38:28.268Z,26.50
2022-10-22T00:40:56.646Z,26.08
2022-10-22T00:43:24.848Z,27.48
2022-10-22T00:45:53.035Z,27.27
2022-10-22T00:48:24.218Z,26.98
2022-10-22T00:50:56.494Z,26.75
2022-10-22T00:53:30.446Z,27.70
2022-10-22T00:55:58.765Z,26.27
2022-10-22T00:58:32.212Z,27.58
2022-10-22T01:01:00.621Z,26.98
2022-10-22T01:03:29.485Z,27.63
2022-10-22T01:05:59.535Z,27.38
2022-10-22T01:08:38.152Z,27.17
2022-10-22T01:11:16.167Z,25.02
2022-10-22T01:13:55.252Z,25.92
2022-10-22T01:16:31.506Z,26.30
2022-10-22T01:19:10.189Z,26.50
2022-10-22T01:21:43.437Z,27.17
2022-10-22T01:24:24.934Z,25.02
2022-10-22T01:27:10.261Z,25.15
2022-10-22T01:29:43.917Z,26.38
2022-10-22T01:32:16.745Z,25.30
2022-10-22T01:34:48.094Z,24.23
2022-10-22T01:37:19.043Z,26.05
2022-10-22T01:39:48.647Z,25.95
2022-10-22T01:42:16.913Z,24.90
2022-10-22T01:44:48.812Z,26.25
2022-10-22T01:47:26.879Z,24.33
2022-10-22T01:50:24.849Z,26.77
2022-10-22T01:53:20.056Z,24.98
2022-10-22T01:56:00.715Z,26.00
2022-10-22T01:58:40.832Z,25.85
2022-10-22T02:01:19.172Z,25.42
2022-10-22T02:03:54.006Z,24.77
2022-10-22T02:06:24.747Z,27.52
2022-10-22T02:08:55.732Z,24.40
2022-10-22T02:11:23.989Z,25.17
2022-10-22T02:13:57.826Z,25.50
2022-10-22T02:16:32.694Z,26.35
2022-10-22T02:19:06.978Z,25.67
2022-10-22T02:21:35.262Z,24.85
2022-10-22T02:24:03.585Z,26.73
2022-10-22T02:26:36.279Z,26.38
2022-10-22T02:29:09.730Z,29.13
2022-10-22T02:31:44.150Z,26.70
2022-10-22T02:34:17.457Z,26.98
2022-10-22T02:36:50.316Z,26.73
2022-10-22T02:39:20.237Z,25.40
2022-10-22T02:41:48.886Z,26.40
2022-10-22T02:44:17.331Z,27.63
2022-10-22T02:46:46.831Z,26.33
2022-10-22T02:49:15.062Z,26.50
2022-10-22T02:51:43.236Z,26.80
2022-10-22T02:54:11.488Z,25.70
2022-10-22T02:56:39.717Z,26.52
2022-10-22T02:59:07.854Z,27.65
2022-10-22T03:01:36.090Z,27.23
2022-10-22T03:04:06.390Z,26.40
2022-10-22T03:06:34.615Z,27.42
2022-10-22T03:09:02.816Z,26.58
2022-10-22T03:11:31.023Z,26.67
2022-10-22T03:13:59.122Z,26.70
2022-10-22T03:16:27.399Z,26.83
2022-10-22T03:18:55.576Z,26.80
2022-10-22T03:21:30.898Z,27.80
2022-10-22T03:24:00.703Z,26.13
2022-10-22T03:26:28.866Z,26.83
2022-10-22T03:28:57.326Z,28.13
2022-10-22T03:31:25.460Z,27.77
2022-10-22T03:33:53.672Z,28.05
2022-10-22T03:36:21.906Z,26.98
2022-10-22T03:38:51.665Z,27.02
2022-10-22T03:41:19.900Z,27.25
2022-10-22T03:43:51.586Z,26.65
2022-10-22T03:46:19.916Z,26.23
2022-10-22T03:48:48.159Z,28.13
2022-10-22T03:51:16.278Z,25.75
2022-10-22T03:53:44.443Z,26.83
2022-10-22T03:56:14.769Z,25.50
2022-10-22T03:58:43.357Z,27.27
2022-10-22T04:01:12.840Z,25.15
2022-10-22T04:03:41.753Z,26.98
2022-10-22T04:06:12.066Z,27.13
2022-10-22T04:08:40.967Z,26.80
2022-10-22T04:11:09.699Z,27.55
2022-10-22T04:13:39.566Z,25.23
2022-10-22T04:16:11.760Z,27.33
2022-10-22T04:18:41.127Z,25.02
2022-10-22T04:21:10.896Z,26.23
2022-10-22T04:23:39.446Z,23.88
2022-10-22T04:26:08.815Z,25.05
2022-10-22T04:28:38.449Z,26.73
2022-10-22T04:31:10.459Z,24.75
2022-10-22T04:33:38.772Z,26.02
2022-10-22T04:36:12.015Z,26.27
2022-10-22T04:38:40.397Z,25.20
2022-10-22T04:41:13.654Z,24.98
2022-10-22T04:43:44.026Z,24.95
2022-10-22T04:46:13.992Z,24.52
2022-10-22T04:48:44.253Z,26.25
2022-10-22T04:51:14.451Z,23.75
2022-10-22T04:53:43.020Z,24.45
2022-10-22T04:56:13.702Z,26.05
2022-10-22T04:58:44.581Z,24.65
2022-10-22T05:01:14.657Z,24.67
2022-10-22T05:03:43.460Z,26.70
2022-10-22T05:08:41.956Z,24.80
2022-10-22T05:11:14.504Z,25.60
2022-10-22T05:13:44.170Z,26.52
2022-10-22T05:16:12.389Z,23.45
2022-10-22T05:18:42.349Z,25.42
2022-10-22T05:21:12.239Z,27.23
2022-10-22T05:23:40.927Z,26.73
2022-10-22T05:26:11.074Z,28.00
2022-10-22T05:28:40.783Z,26.65
2022-10-22T05:31:12.837Z,27.77
2022-10-22T05:33:41.562Z,25.77
2022-10-22T05:36:12.481Z,27.85
2022-10-22T05:38:40.723Z,28.33
2022-10-22T05:41:10.262Z,29.48
2022-10-22T05:43:39.285Z,27.48
2022-10-22T05:46:13.500Z,29.88
2022-10-22T05:48:42.110Z,29.38
2022-10-22T05:51:13.584Z,28.60
2022-10-22T05:53:43.291Z,29.00
2022-10-22T05:56:15.261Z,28.45
2022-10-22T05:58:43.753Z,27.73
2022-10-22T06:01:15.676Z,27.17
2022-10-22T06:03:44.709Z,27.77
2022-10-22T06:06:19.681Z,29.63
2022-10-22T06:08:49.055Z,29.40
2022-10-22T06:11:18.618Z,28.23
2022-10-22T06:13:47.535Z,31.70
2022-10-22T06:16:17.422Z,29.13
2022-10-22T06:18:45.578Z,31.23
2022-10-22T06:21:15.356Z,29.80
2022-10-22T06:23:44.401Z,31.98
2022-10-22T06:26:12.739Z,31.85
2022-10-22T06:28:40.917Z,29.55
2022-10-22T06:31:09.067Z,31.13
2022-10-22T06:33:42.325Z,31.27
2022-10-22T06:36:12.759Z,32.35
2022-10-22T06:38:41.806Z,30.80
2022-10-22T06:41:11.832Z,30.73
2022-10-22T06:43:40.086Z,31.85
2022-10-22T06:46:14.691Z,33.45
2022-10-22T06:48:50.725Z,30.88
2022-10-22T06:51:19.302Z,31.02
2022-10-22T06:53:47.516Z,31.60
2022-10-22T06:56:18.229Z,30.15
2022-10-22T06:58:49.021Z,31.38
2022-10-22T07:01:19.319Z,30.85
2022-10-22T07:03:50.766Z,31.30
2022-10-22T07:06:19.786Z,34.33
2022-10-22T07:08:48.024Z,33.03
2022-10-22T07:11:18.617Z,32.30
2022-10-22T07:13:47.727Z,31.08
2022-10-22T07:16:16.992Z,33.60
2022-10-22T07:18:46.041Z,32.63
2022-10-22T07:21:17.060Z,31.40
2022-10-22T07:23:46.164Z,33.28
2022-10-22T07:26:16.021Z,31.98
2022-10-22T07:28:44.380Z,32.00
2022-10-22T07:31:14.536Z,32.85
2022-10-22T07:33:42.962Z,30.92
2022-10-22T07:36:17.512Z,31.85
2022-10-22T07:38:48.034Z,33.42
2022-10-22T07:41:16.992Z,33.75
2022-10-22T07:43:45.484Z,31.77
2022-10-22T07:46:13.640Z,33.72
2022-10-22T07:48:42.151Z,33.55
2022-10-22T07:51:10.456Z,33.47
2022-10-22T07:53:38.793Z,32.40
2022-10-22T07:56:09.199Z,33.13
2022-10-22T07:58:37.626Z,33.60
2022-10-22T08:01:06.806Z,34.67
2022-10-22T08:03:35.191Z,35.33
2022-10-22T08:06:04.110Z,34.65
2022-10-22T08:08:32.491Z,35.30
2022-10-22T08:11:02.080Z,33.58
2022-10-22T08:13:32.494Z,33.45
2022-10-22T08:16:01.651Z,33.83
2022-10-22T08:18:30.175Z,34.97
2022-10-22T08:20:59.235Z,34.13
2022-10-22T08:23:28.950Z,34.85
2022-10-22T08:25:58.507Z,33.35
2022-10-22T08:28:28.814Z,35.95
2022-10-22T08:30:58.416Z,33.30
2022-10-22T08:33:26.650Z,33.17
2022-10-22T08:35:55.104Z,34.95
2022-10-22T08:38:23.479Z,35.30
2022-10-22T08:40:55.914Z,33.83
2022-10-22T08:44:04.255Z,32.75
2022-10-22T08:46:46.627Z,32.15
2022-10-22T08:49:21.188Z,34.38
2022-10-22T08:51:49.707Z,33.17
2022-10-22T08:54:26.156Z,33.55
2022-10-22T08:57:06.105Z,34.38
2022-10-22T08:59:43.122Z,32.55
2022-10-22T09:02:31.652Z,36.33
2022-10-22T09:05:11.628Z,36.60
2022-10-22T09:07:43.211Z,36.83
2022-10-22T09:10:13.878Z,38.50
2022-10-22T09:12:42.358Z,38.42
2022-10-22T09:15:15.343Z,37.22
2022-10-22T09:17:56.482Z,38.05
2022-10-22T09:20:29.997Z,35.10
2022-10-22T09:23:13.906Z,35.10
2022-10-22T09:25:43.397Z,34.92
2022-10-22T09:28:11.642Z,36.00
2022-10-22T09:30:40.492Z,35.45
2022-10-22T09:33:15.498Z,33.78
2022-10-22T09:35:48.475Z,35.42
2022-10-22T09:38:20.239Z,35.85
2022-10-22T09:40:51.008Z,36.75
2022-10-22T09:43:19.911Z,36.67
2022-10-22T09:45:49.562Z,36.03
2022-10-22T09:48:26.687Z,35.25
2022-10-22T09:51:01.380Z,38.40
2022-10-22T09:53:31.713Z,37.70
2022-10-22T09:56:01.727Z,37.70
2022-10-22T09:58:30.107Z,40.08
2022-10-22T10:01:01.266Z,38.22
2022-10-22T10:03:34.115Z,48.83
2022-10-22T10:06:05.970Z,43.80
2022-10-22T10:08:35.047Z,54.15
2022-10-22T10:11:10.935Z,50.70
2022-10-22T10:13:52.846Z,48.95
2022-10-22T10:16:35.946Z,51.95
2022-10-22T10:19:31.843Z,55.83
2022-10-22T10:22:10.667Z,41.42
2022-10-22T10:24:55.762Z,43.78
2022-10-22T10:27:29.626Z,38.95
2022-10-22T10:30:03.739Z,39.38
2022-10-22T10:32:56.255Z,39.17
2022-10-22T10:35:29.337Z,38.03
2022-10-22T10:38:10.420Z,39.95
2022-10-22T10:40:44.985Z,39.00
2022-10-22T10:43:20.382Z,40.85
2022-10-22T10:45:57.834Z,39.08
2022-10-22T10:48:38.199Z,37.63
2022-10-22T10:51:22.070Z,38.17
2022-10-22T10:54:03.571Z,38.72
2022-10-22T10:56:41.299Z,38.33
2022-10-22T10:59:18.684Z,37.13
2022-10-22T11:02:13.893Z,36.67
2022-10-22T11:05:03.095Z,38.17
2022-10-22T11:07:37.798Z,36.55
2022-10-22T11:10:14.864Z,40.20
2022-10-22T11:12:48.929Z,38.38
2022-10-22T11:15:28.700Z,41.88
2022-10-22T11:18:03.432Z,38.60
2022-10-22T11:20:49.702Z,36.17
2022-10-22T11:23:27.026Z,37.38
2022-10-22T11:25:55.327Z,39.00
2022-10-22T11:28:29.948Z,39.72
2022-10-22T11:31:03.939Z,39.25
2022-10-22T11:33:40.664Z,37.35
2022-10-22T11:36:10.438Z,38.55
2022-10-22T11:38:40.013Z,39.00
2022-10-22T11:41:12.949Z,35.45
2022-10-22T11:43:58.963Z,36.80
2022-10-22T11:46:35.730Z,44.78
2022-10-22T11:49:25.332Z,44.92
2022-10-22T11:52:06.388Z,38.60
2022-10-22T11:54:45.808Z,38.15
2022-10-22T11:57:24.424Z,36.70
2022-10-22T11:59:55.468Z,38.22
2022-10-22T12:02:42.928Z,35.97
2022-10-22T12:05:34.968Z,33.58
2022-10-22T12:08:16.205Z,36.22
2022-10-22T12:11:07.910Z,35.78
2022-10-22T12:14:07.185Z,36.35
2022-10-22T12:16:57.229Z,35.65
2022-10-22T12:19:28.794Z,35.97
2022-10-22T12:22:00.481Z,43.83
2022-10-22T12:24:33.720Z,38.35
2022-10-22T12:27:03.451Z,36.72
2022-10-22T12:29:34.112Z,36.50
2022-10-22T12:32:05.624Z,36.13
2022-10-22T12:34:33.913Z,36.33
2022-10-22T12:37:06.760Z,38.67
2022-10-22T12:39:35.526Z,41.63
2022-10-22T12:42:07.294Z,40.08
2022-10-22T12:44:35.430Z,37.42
2022-10-22T12:47:03.688Z,36.70
2022-10-22T12:49:39.401Z,37.35
2022-10-22T12:52:14.127Z,40.05
2022-10-22T12:54:43.094Z,39.40
2022-10-22T12:57:16.962Z,38.28
2022-10-22T12:59:49.887Z,40.58
2022-10-22T13:02:25.062Z,38.63
2022-10-22T13:05:22.945Z,37.47
2022-10-22T13:07:53.423Z,38.30
2022-10-22T13:10:25.857Z,38.63
2022-10-22T13:12:58.856Z,38.85
2022-10-22T13:15:39.615Z,39.75
2022-10-22T13:18:16.843Z,40.67
2022-10-22T13:20:53.181Z,42.25
2022-10-22T13:23:23.472Z,38.95
2022-10-22T13:26:00.382Z,39.90
2022-10-22T13:28:31.589Z,40.17
2022-10-22T13:31:02.002Z,37.92
2022-10-22T13:33:36.795Z,39.75
2022-10-22T13:36:05.731Z,36.15
2022-10-22T13:38:33.951Z,36.08
2022-10-22T13:41:03.290Z,38.75
2022-10-22T13:43:32.939Z,39.20
2022-10-22T13:46:01.869Z,41.33
2022-10-22T13:48:33.291Z,42.42
2022-10-22T13:51:01.509Z,40.25
2022-10-22T13:53:31.328Z,44.45
2022-10-22T13:55:59.560Z,44.05
2022-10-22T13:58:27.833Z,42.00
2022-10-22T14:01:00.001Z,39.88
2022-10-22T14:03:31.840Z,41.03
2022-10-22T14:06:00.179Z,39.75
2022-10-22T14:08:29.459Z,41.55
2022-10-22T14:10:57.985Z,43.03
2022-10-22T14:13:26.702Z,40.33
2022-10-22T14:15:55.453Z,40.72
2022-10-22T14:18:28.968Z,39.25
2022-10-22T14:20:59.990Z,38.67
2022-10-22T14:23:30.683Z,40.88
2022-10-22T14:25:59.553Z,39.55
2022-10-22T14:28:27.865Z,37.78
2022-10-22T14:30:56.803Z,38.13
2022-10-22T14:33:31.275Z,36.55
2022-10-22T14:36:00.249Z,36.50
2022-10-22T14:38:28.642Z,39.10
2022-10-22T14:40:57.462Z,37.88
2022-10-22T14:43:27.485Z,38.15
2022-10-22T14:45:56.575Z,37.20
2022-10-22T14:48:26.283Z,34.72
2022-10-22T14:50:56.102Z,36.67
2022-10-22T14:53:24.301Z,37.22
2022-10-22T14:55:55.525Z,35.38
2022-10-22T14:58:23.654Z,35.40
2022-10-22T15:00:52.055Z,36.55
2022-10-22T15:03:20.443Z,34.88
2022-10-22T15:05:53.805Z,36.70
2022-10-22T15:08:22.266Z,35.40
2022-10-22T15:11:00.002Z,34.42
2022-10-22T15:13:28.804Z,35.95
2022-10-22T15:15:57.197Z,35.75
2022-10-22T15:18:26.130Z,37.00
2022-10-22T15:21:00.524Z,35.88
2022-10-22T15:23:28.896Z,36.30
2022-10-22T15:25:57.853Z,37.67
2022-10-22T15:28:26.672Z,36.47
2022-10-22T15:30:56.265Z,37.08
2022-10-22T15:33:24.882Z,35.88
2022-10-22T15:35:53.222Z,36.83
2022-10-22T15:38:23.723Z,37.97
2022-10-22T15:41:04.464Z,37.70
2022-10-22T15:43:33.853Z,37.33
2022-10-22T15:46:11.411Z,35.55
2022-10-22T15:48:39.734Z,35.38
2022-10-22T15:51:13.000Z,36.65
2022-10-22T15:53:43.044Z,37.47
2022-10-22T15:56:12.806Z,39.17
2022-10-22T15:58:41.070Z,37.20
2022-10-22T16:01:11.451Z,37.92
2022-10-22T16:03:39.886Z,39.65
2022-10-22T16:06:09.708Z,38.67
2022-10-22T16:08:38.623Z,38.92
2022-10-22T16:11:08.289Z,37.97
2022-10-22T16:13:37.410Z,46.53
2022-10-22T16:16:08.149Z,39.55
2022-10-22T16:18:36.594Z,42.25
2022-10-22T16:21:05.009Z,41.30
2022-10-22T16:23:33.254Z,41.50
2022-10-22T16:26:03.000Z,41.42
2022-10-22T16:31:05.999Z,39.65
2022-10-22T16:33:41.412Z,40.13
2022-10-22T16:36:14.111Z,40.65
2022-10-22T16:38:42.309Z,41.55
2022-10-22T16:41:12.173Z,42.65
2022-10-22T16:43:42.293Z,42.95
2022-10-22T16:46:10.560Z,43.30
2022-10-22T16:48:41.357Z,47.53
2022-10-22T16:51:11.455Z,42.85
2022-10-22T16:53:39.731Z,48.60
2022-10-22T16:56:10.696Z,44.20
2022-10-22T16:58:39.694Z,45.70
2022-10-22T17:01:10.228Z,44.60
2022-10-22T17:03:38.513Z,47.05
2022-10-22T17:06:07.647Z,48.13
2022-10-22T17:08:37.793Z,49.42
2022-10-22T17:11:10.708Z,51.58
2022-10-22T17:13:39.434Z,49.95
2022-10-22T17:16:11.604Z,49.65
2022-10-22T17:18:41.332Z,50.10
2022-10-22T17:21:11.807Z,52.55
2022-10-22T17:23:40.317Z,51.30
2022-10-22T17:26:13.989Z,51.42
2022-10-22T17:28:42.442Z,50.78
2022-10-22T17:31:17.231Z,50.67
2022-10-22T17:33:46.354Z,50.33
2022-10-22T17:36:15.525Z,52.35
2022-10-22T17:38:45.433Z,52.95
2022-10-22T17:41:18.740Z,54.42
2022-10-22T17:43:47.602Z,52.22
2022-10-22T17:46:22.115Z,53.20
2022-10-22T17:48:51.221Z,52.08
2022-10-22T17:51:19.948Z,53.85
2022-10-22T17:53:50.268Z,52.80
2022-10-22T17:56:21.129Z,52.75
2022-10-22T17:58:49.732Z,53.22
2022-10-22T18:01:22.080Z,51.22
2022-10-22T18:03:50.548Z,54.22
2022-10-22T18:06:26.850Z,51.75
2022-10-22T18:08:55.152Z,52.92
2022-10-22T18:11:25.991Z,54.17
2022-10-22T18:13:57.591Z,53.97
2022-10-22T18:16:27.954Z,53.33
2022-10-22T18:18:58.676Z,54.22
2022-10-22T18:21:28.618Z,54.97
2022-10-22T18:23:59.119Z,57.38
2022-10-22T18:26:27.471Z,55.38
2022-10-22T18:28:56.265Z,56.83
2022-10-22T18:31:33.699Z,54.65
2022-10-22T18:34:01.973Z,56.33
2022-10-22T18:36:30.180Z,54.67
2022-10-22T18:39:00.672Z,55.53
2022-10-22T18:41:31.065Z,55.00
2022-10-22T18:44:01.608Z,53.40
2022-10-22T18:46:30.746Z,53.13
2022-10-22T18:49:00.517Z,53.75
2022-10-22T18:51:31.750Z,50.75
2022-10-22T18:54:22.147Z,52.90
2022-10-22T18:56:48.914Z,52.10
2022-10-22T18:59:20.009Z,51.85
2022-10-22T19:01:48.329Z,52.03
2022-10-22T19:04:18.255Z,50.22
2022-10-22T19:06:47.135Z,48.20
2022-10-22T19:09:16.148Z,47.53
2022-10-22T19:11:45.692Z,47.53
2022-10-22T19:14:15.206Z,48.53
2022-10-22T19:16:43.657Z,44.35
2022-10-22T19:19:16.020Z,44.35
2022-10-22T19:21:46.006Z,47.42
2022-10-22T19:24:16.053Z,42.20
2022-10-22T19:26:45.006Z,44.05
2022-10-22T19:29:15.836Z,44.20
2022-10-22T19:31:44.880Z,40.63
2022-10-22T19:34:13.302Z,41.17
2022-10-22T19:36:41.980Z,41.83
2022-10-22T19:39:11.791Z,40.30
2022-10-22T19:41:40.495Z,41.90
2022-10-22T19:44:09.111Z,39.78
2022-10-22T19:46:38.154Z,38.40
2022-10-22T19:49:07.158Z,43.65
2022-10-22T19:51:35.621Z,36.75
2022-10-22T19:54:06.046Z,36.13
2022-10-22T19:56:37.759Z,36.47
2022-10-22T19:59:07.088Z,36.75
2022-10-22T20:01:35.536Z,35.03
2022-10-22T20:04:03.882Z,36.47
2022-10-22T20:06:32.343Z,34.97
2022-10-22T20:09:00.659Z,37.00
2022-10-22T20:11:31.252Z,37.35
2022-10-22T20:14:00.987Z,34.83
2022-10-22T20:16:30.709Z,35.08
2022-10-22T20:19:02.138Z,32.40
2022-10-22T20:21:31.904Z,32.92
2022-10-22T20:24:00.791Z,32.60
2022-10-22T20:26:32.387Z,33.35
2022-10-22T20:29:02.033Z,32.97
2022-10-22T20:31:32.898Z,31.02
2022-10-22T20:34:02.906Z,30.98
2022-10-22T20:36:32.908Z,31.13
2022-10-22T20:39:03.174Z,31.20
2022-10-22T20:41:31.876Z,28.52
2022-10-22T20:44:14.512Z,31.33
2022-10-22T20:46:46.163Z,30.48
2022-10-22T20:49:16.939Z,28.35
2022-10-22T20:51:45.695Z,31.08
2022-10-22T20:54:16.211Z,28.05
2022-10-22T20:56:44.864Z,29.02
2022-10-22T20:59:34.862Z,29.25
2022-10-22T21:02:04.248Z,26.83
2022-10-22T21:04:33.578Z,28.25
2022-10-22T21:07:01.909Z,28.58
2022-10-22T21:09:30.188Z,29.40
2022-10-22T21:12:03.271Z,28.42
2022-10-22T21:14:33.209Z,26.60
2022-10-22T21:17:01.447Z,27.92
2022-10-22T21:19:29.763Z,29.23
2022-10-22T21:21:58.571Z,31.50
2022-10-22T21:24:27.376Z,29.30
2022-10-22T21:26:55.722Z,31.25
2022-10-22T21:29:26.952Z,30.63
2022-10-22T21:31:58.684Z,30.98
2022-10-22T21:34:27.093Z,31.38
2022-10-22T21:36:55.393Z,31.13
2022-10-22T21:39:23.649Z,31.38
2022-10-22T21:41:51.961Z,32.47
2022-10-22T21:44:20.269Z,32.63
2022-10-22T21:46:48.499Z,32.53
2022-10-22T21:49:18.257Z,31.35
2022-10-22T21:51:46.415Z,35.25
2022-10-22T21:54:14.695Z,34.92
2022-10-22T21:56:45.548Z,31.17
2022-10-22T21:59:13.697Z,34.67
2022-10-22T22:01:41.985Z,32.92
2022-10-22T22:04:10.359Z,36.55
2022-10-22T22:06:40.017Z,32.53
2022-10-22T22:09:08.488Z,34.20
2022-10-22T22:11:36.805Z,31.30
2022-10-22T22:14:04.947Z,32.05
2022-10-22T22:16:35.148Z,35.35
2022-10-22T22:21:33.825Z,32.28
2022-10-22T22:24:04.154Z,34.65
2022-10-22T22:26:32.390Z,33.35
2022-10-22T22:29:02.168Z,32.00
2022-10-22T22:31:32.205Z,31.75
2022-10-22T22:34:01.453Z,31.98
2022-10-22T22:36:36.004Z,32.10
2022-10-22T22:39:09.450Z,32.53
2022-10-22T22:41:37.565Z,30.23
2022-10-22T22:44:06.171Z,32.03
2022-10-22T22:46:34.461Z,33.80
2022-10-22T22:49:02.740Z,31.13
2022-10-22T22:51:30.984Z,30.75
2022-10-22T22:54:00.178Z,32.55
2022-10-22T22:56:32.768Z,32.03
2022-10-22T22:59:01.163Z,33.95
2022-10-22T23:01:30.755Z,32.38
2022-10-22T23:04:01.126Z,34.10
2022-10-22T23:06:34.819Z,30.77
2022-10-22T23:09:04.011Z,31.05
2022-10-22T23:11:33.940Z,30.48
2022-10-22T23:14:03.924Z,29.98
2022-10-22T23:16:36.778Z,31.50
2022-10-22T23:19:06.220Z,29.60
2022-10-22T23:21:36.320Z,28.55
2022-10-22T23:24:07.452Z,28.35
2022-10-22T23:26:39.475Z,30.98
2022-10-22T23:29:10.684Z,27.70
2022-10-22T23:31:39.161Z,28.55
2022-10-22T23:34:08.716Z,27.95
2022-10-22T23:36:38.322Z,26.20
2022-10-22T23:39:07.233Z,25.48
2022-10-22T23:41:36.922Z,27.58
2022-10-22T23:44:05.759Z,27.95
2022-10-22T23:46:34.427Z,28.52
2022-10-22T23:49:02.914Z,28.42
2022-10-22T23:51:31.088Z,26.65
2022-10-22T23:54:01.114Z,27.25
2022-10-22T23:56:30.342Z,29.30
2022-10-22T23:59:00.017Z,29.83
